< < Back
Terminal Aerodrome Forecast


Current Version              Previous Versions:   1  2  3  4  5  6  7  8  9  

Terminal Aerodrome Forecast

066
FTUS42 KGSP 200700 AAA
TAFHKY
TAF AMD
KHKY 200716Z 2007/2106 00000KT P6SM BKN250
      TEMPO 2010/2012 5SM BR
     FM201300 00000KT 6SM BR SCT200
     FM201500 21006KT P6SM SCT200=

Latest METAR

973
SAUS70 KWBC 200800 RRJ
MTRHKY
METAR KHKY 200753Z AUTO 00000KT 10SM CLR 07/06 A3012 RMK AO2 SLP185
T00720061


USA.gov is the U.S. government's official web portal to all federal, state and local government web resources and services.